createdAt,value
2023-05-02T00:00:02.309Z,101293.66
2023-05-02T00:02:08.832Z,101299.72
2023-05-02T00:04:12.474Z,101294.50
2023-05-02T00:06:17.305Z,101299.72
2023-05-02T00:08:20.689Z,101295.34
2023-05-02T00:10:24.216Z,101296.19
2023-05-02T00:12:27.539Z,101297.88
2023-05-02T00:14:31.196Z,101294.50
2023-05-02T00:16:34.603Z,101293.56
2023-05-02T00:18:38.178Z,101296.19
2023-05-02T00:20:42.229Z,101297.88
2023-05-02T00:22:47.017Z,101297.88
2023-05-02T00:24:50.360Z,101297.88
2023-05-02T00:26:53.714Z,101294.31
2023-05-02T00:28:57.391Z,101292.63
2023-05-02T00:31:00.748Z,101296.19
2023-05-02T00:33:07.126Z,101301.41
2023-05-02T00:35:11.135Z,101293.66
2023-05-02T00:37:14.611Z,101293.66
2023-05-02T00:39:19.354Z,101299.72
2023-05-02T00:41:22.832Z,101299.72
2023-05-02T00:43:26.277Z,101308.53
2023-05-02T00:45:30.559Z,101303.28
2023-05-02T00:47:34.517Z,101301.41
2023-05-02T00:49:38.374Z,101298.78
2023-05-02T00:51:42.076Z,101296.19
2023-05-02T00:53:46.352Z,101299.56
2023-05-02T00:55:51.204Z,101301.22
2023-05-02T00:57:54.697Z,101297.66
2023-05-02T00:59:58.926Z,101300.28
2023-05-02T01:02:12.983Z,101304.69
2023-05-02T01:04:28.518Z,101297.75
2023-05-02T01:06:42.253Z,101303.94
2023-05-02T01:08:52.088Z,101297.09
2023-05-02T01:11:04.915Z,101304.22
2023-05-02T01:13:13.395Z,101301.00
2023-05-02T01:15:20.505Z,101303.88
2023-05-02T01:17:28.123Z,101299.75
2023-05-02T01:19:36.654Z,101303.34
2023-05-02T01:21:41.656Z,101300.06
2023-05-02T01:23:58.789Z,101302.88
2023-05-02T01:26:16.226Z,101296.97
2023-05-02T01:28:30.412Z,101301.44
2023-05-02T01:30:40.032Z,101306.84
2023-05-02T01:32:47.000Z,101310.38
2023-05-02T01:34:52.463Z,101303.47
2023-05-02T01:36:58.817Z,101306.16
2023-05-02T01:39:04.117Z,101303.63
2023-05-02T01:41:08.450Z,101303.63
2023-05-02T01:43:13.813Z,101307.25
2023-05-02T01:45:17.804Z,101314.28
2023-05-02T01:47:24.312Z,101312.56
2023-05-02T01:49:30.770Z,101311.81
2023-05-02T01:51:36.577Z,101312.09
2023-05-02T01:53:41.487Z,101316.66
2023-05-02T01:55:47.033Z,101315.97
2023-05-02T01:57:54.507Z,101316.97
2023-05-02T01:59:59.543Z,101314.44
2023-05-02T02:02:03.815Z,101327.63
2023-05-02T02:04:11.494Z,101330.22
2023-05-02T02:06:17.327Z,101325.94
2023-05-02T02:08:20.955Z,101329.47
2023-05-02T02:10:30.876Z,101327.78
2023-05-02T02:12:42.961Z,101326.09
2023-05-02T02:14:51.250Z,101337.41
2023-05-02T02:16:57.832Z,101334.78
2023-05-02T02:19:08.538Z,101341.78
2023-05-02T02:21:19.649Z,101338.25
2023-05-02T02:23:26.394Z,101347.03
2023-05-02T02:25:30.901Z,101347.03
2023-05-02T02:27:34.341Z,101349.72
2023-05-02T02:29:37.785Z,101357.50
2023-05-02T02:31:41.247Z,101366.28
2023-05-02T02:33:45.395Z,101380.28
2023-05-02T02:35:55.010Z,101372.69
2023-05-02T02:38:09.792Z,101369.50
2023-05-02T02:40:22.061Z,101388.97
2023-05-02T02:42:35.306Z,101400.69
2023-05-02T02:44:48.764Z,101393.22
2023-05-02T02:47:02.625Z,101398.88
2023-05-02T02:49:23.070Z,101399.09
2023-05-02T02:51:32.907Z,101409.88
2023-05-02T02:53:48.170Z,101421.47
2023-05-02T02:56:04.176Z,101420.03
2023-05-02T02:58:20.207Z,101424.72
2023-05-02T03:00:26.164Z,101438.09
2023-05-02T03:02:33.866Z,101438.53
2023-05-02T03:04:42.082Z,101445.94
2023-05-02T03:06:45.803Z,101453.28
2023-05-02T03:08:50.736Z,101451.88
2023-05-02T03:10:56.308Z,101467.84
2023-05-02T03:12:59.701Z,101469.13
2023-05-02T03:15:18.479Z,101470.28
2023-05-02T03:17:23.320Z,101481.78
2023-05-02T03:19:28.052Z,101488.91
2023-05-02T03:21:33.283Z,101490.81
2023-05-02T03:23:43.021Z,101497.06
2023-05-02T03:25:48.378Z,101502.72
2023-05-02T03:27:59.182Z,101510.81
2023-05-02T03:30:02.782Z,101502.41
2023-05-02T03:32:08.406Z,101508.63
2023-05-02T03:34:13.849Z,101512.28
2023-05-02T03:36:18.535Z,101521.94
2023-05-02T03:38:21.997Z,101512.41
2023-05-02T03:40:28.284Z,101522.84
2023-05-02T03:42:40.027Z,101531.59
2023-05-02T03:44:48.361Z,101525.59
2023-05-02T03:46:51.910Z,101526.66
2023-05-02T03:48:55.482Z,101542.44
2023-05-02T03:50:58.851Z,101544.25
2023-05-02T03:53:02.923Z,101548.75
2023-05-02T03:55:15.551Z,101543.69
2023-05-02T03:57:18.911Z,101545.59
2023-05-02T03:59:23.714Z,101553.53
2023-05-02T04:01:27.765Z,101551.97
2023-05-02T04:03:32.847Z,101555.63
2023-05-02T04:05:37.978Z,101558.28
2023-05-02T04:07:41.721Z,101559.25
2023-05-02T04:09:45.160Z,101568.91
2023-05-02T04:11:49.606Z,101576.81
2023-05-02T04:13:53.896Z,101575.19
2023-05-02T04:15:59.330Z,101584.84
2023-05-02T04:18:06.718Z,101592.66
2023-05-02T04:20:12.835Z,101588.41
2023-05-02T04:22:20.348Z,101607.59
2023-05-02T04:24:29.005Z,101599.81
2023-05-02T04:26:34.154Z,101599.94
2023-05-02T04:28:42.977Z,101602.63
2023-05-02T04:30:47.938Z,101614.81
2023-05-02T04:32:53.104Z,101613.06
2023-05-02T04:34:57.042Z,101615.59
2023-05-02T04:37:02.176Z,101618.22
2023-05-02T04:39:07.692Z,101615.66
2023-05-02T04:41:14.365Z,101614.88
2023-05-02T04:43:24.555Z,101631.38
2023-05-02T04:45:33.714Z,101640.09
2023-05-02T04:47:37.240Z,101630.56
2023-05-02T04:49:43.024Z,101640.09
2023-05-02T04:51:46.582Z,101647.00
2023-05-02T04:53:51.350Z,101646.91
2023-05-02T04:55:55.804Z,101653.81
2023-05-02T04:57:59.712Z,101658.97
2023-05-02T05:00:03.835Z,101666.72
2023-05-02T05:02:09.272Z,101662.38
2023-05-02T05:04:12.888Z,101667.59
2023-05-02T05:06:17.856Z,101674.56
2023-05-02T05:08:22.094Z,101669.34
2023-05-02T05:10:25.561Z,101674.56
2023-05-02T05:12:28.964Z,101678.06
2023-05-02T05:14:32.527Z,101685.13
2023-05-02T05:16:35.935Z,101689.59
2023-05-02T05:18:41.472Z,101686.19
2023-05-02T05:20:47.628Z,101694.06
2023-05-02T05:22:52.397Z,101688.97
2023-05-02T05:24:57.526Z,101695.09
2023-05-02T05:27:05.519Z,101694.31
2023-05-02T05:29:09.004Z,101698.81
2023-05-02T05:31:17.346Z,101699.78
2023-05-02T05:33:24.695Z,101707.66
2023-05-02T05:35:28.407Z,101712.03
2023-05-02T05:37:33.230Z,101713.84
2023-05-02T05:39:39.566Z,101720.75
2023-05-02T05:41:43.274Z,101724.25
2023-05-02T05:43:48.562Z,101720.00
2023-05-02T05:45:53.522Z,101722.69
2023-05-02T05:47:57.195Z,101734.81
2023-05-02T05:50:03.510Z,101729.59
2023-05-02T05:52:08.352Z,101746.94
2023-05-02T05:54:12.424Z,101745.22
2023-05-02T05:56:18.329Z,101742.69
2023-05-02T05:58:29.492Z,101753.16
2023-05-02T06:00:35.244Z,101746.25
2023-05-02T06:02:38.813Z,101750.56
2023-05-02T06:04:42.867Z,101762.69
2023-05-02T06:06:46.989Z,101766.09
2023-05-02T06:08:50.395Z,101768.59
2023-05-02T06:10:53.807Z,101755.44
2023-05-02T06:12:58.626Z,101764.06
2023-05-02T06:15:07.764Z,101770.84
2023-05-02T06:17:11.748Z,101772.44
2023-05-02T06:19:15.316Z,101782.75
2023-05-02T06:21:18.737Z,101782.63
2023-05-02T06:23:22.799Z,101784.44
2023-05-02T06:25:26.925Z,101782.69
2023-05-02T06:27:32.939Z,101786.16
2023-05-02T06:29:38.336Z,101778.31
2023-05-02T06:31:42.115Z,101794.03
2023-05-02T06:33:45.584Z,101806.28
2023-05-02T06:35:52.723Z,101807.13
2023-05-02T06:37:56.096Z,101806.34
2023-05-02T06:39:59.630Z,101821.97
2023-05-02T06:42:03.112Z,101822.88
2023-05-02T06:44:08.018Z,101818.47
2023-05-02T06:46:12.816Z,101821.94
2023-05-02T06:48:16.400Z,101834.00
2023-05-02T06:50:20.024Z,101839.16
2023-05-02T06:52:23.421Z,101842.63
2023-05-02T06:54:27.176Z,101835.66
2023-05-02T06:56:31.329Z,101843.41
2023-05-02T06:58:34.776Z,101854.59
2023-05-02T07:00:38.214Z,101851.09
2023-05-02T07:02:43.084Z,101859.72
2023-05-02T07:04:46.631Z,101862.25
2023-05-02T07:06:50.546Z,101864.75
2023-05-02T07:08:54.070Z,101864.75
2023-05-02T07:10:57.455Z,101863.91
2023-05-02T07:13:00.875Z,101874.25
2023-05-02T07:15:04.491Z,101874.25
2023-05-02T07:17:08.092Z,101879.38
2023-05-02T07:19:12.904Z,101880.06
2023-05-02T07:21:16.304Z,101878.13
2023-05-02T07:23:20.426Z,101879.72
2023-05-02T07:25:23.837Z,101878.72
2023-05-02T07:27:27.189Z,101880.41
2023-05-02T07:29:30.542Z,101885.53
2023-05-02T07:31:34.364Z,101891.41
2023-05-02T07:33:37.739Z,101891.22
2023-05-02T07:35:42.587Z,101896.22
2023-05-02T07:37:45.944Z,101902.13
2023-05-02T07:39:49.369Z,101904.47
2023-05-02T07:41:53.072Z,101904.41
2023-05-02T07:43:57.609Z,101907.03
2023-05-02T07:46:05.660Z,101917.47
2023-05-02T07:48:09.113Z,101907.03
2023-05-02T07:50:12.828Z,101907.03
2023-05-02T07:52:17.545Z,101920.03
2023-05-02T07:54:22.094Z,101921.63
2023-05-02T07:56:25.600Z,101906.56
2023-05-02T07:58:29.196Z,101911.69
2023-05-02T08:00:32.614Z,101906.34
2023-05-02T08:02:37.085Z,101914.97
2023-05-02T08:04:40.783Z,101915.69
2023-05-02T08:06:45.933Z,101916.31
2023-05-02T08:08:50.764Z,101926.53
2023-05-02T08:10:54.167Z,101922.91
2023-05-02T08:12:57.546Z,101933.13
2023-05-02T08:15:00.904Z,101932.97
2023-05-02T08:17:04.217Z,101940.63
2023-05-02T08:19:07.559Z,101951.69
2023-05-02T08:21:12.475Z,101949.75
2023-05-02T08:23:15.783Z,101952.31
2023-05-02T08:25:20.624Z,101950.59
2023-05-02T08:27:24.006Z,101952.31
2023-05-02T08:29:27.325Z,101960.22
2023-05-02T08:31:30.769Z,101961.13
2023-05-02T08:33:34.184Z,101965.31
2023-05-02T08:35:37.676Z,101972.13
2023-05-02T08:37:41.158Z,101966.75
2023-05-02T08:39:44.504Z,101964.81
2023-05-02T08:41:49.601Z,101975.88
2023-05-02T08:43:53.995Z,101966.03
2023-05-02T08:46:01.265Z,101969.31
2023-05-02T08:48:08.413Z,101975.94
2023-05-02T08:50:12.360Z,101975.59
2023-05-02T08:52:16.808Z,101983.97
2023-05-02T08:54:22.448Z,101984.59
2023-05-02T08:56:26.357Z,101983.56
2023-05-02T08:58:31.853Z,101982.50
2023-05-02T09:00:40.848Z,101985.53
2023-05-02T09:02:58.293Z,101980.78
2023-05-02T09:05:07.767Z,101985.78
2023-05-02T09:07:13.800Z,101987.34
2023-05-02T09:09:18.929Z,101981.13
2023-05-02T09:11:23.092Z,101989.75
2023-05-02T09:13:32.039Z,101999.25
2023-05-02T09:15:35.386Z,101990.19
2023-05-02T09:17:43.144Z,101998.44
2023-05-02T09:19:46.572Z,101990.78
2023-05-02T09:21:50.167Z,101992.75
2023-05-02T09:23:56.028Z,101996.66
2023-05-02T09:26:00.212Z,102009.75
2023-05-02T09:28:03.898Z,101996.09
2023-05-02T09:30:25.890Z,102002.44
2023-05-02T09:32:46.616Z,102007.56
2023-05-02T09:35:08.753Z,102008.34
2023-05-02T09:37:13.601Z,102011.03
2023-05-02T09:39:19.366Z,102009.97
2023-05-02T09:41:22.770Z,102017.31
2023-05-02T09:43:26.198Z,102014.91
2023-05-02T09:45:30.954Z,102023.09
2023-05-02T09:47:34.509Z,102020.34
2023-05-02T09:49:42.448Z,102028.06
2023-05-02T09:51:46.665Z,102035.78
2023-05-02T09:53:50.869Z,102026.28
2023-05-02T09:56:04.787Z,102038.69
2023-05-02T09:58:08.246Z,102026.66
2023-05-02T10:00:15.065Z,102039.16
2023-05-02T10:02:21.932Z,102043.88
2023-05-02T10:04:26.399Z,102039.00
2023-05-02T10:06:29.923Z,102041.81
2023-05-02T10:08:35.033Z,102051.69
2023-05-02T10:10:39.754Z,102042.41
2023-05-02T10:12:43.327Z,102046.84
2023-05-02T10:14:50.826Z,102033.81
2023-05-02T10:17:01.054Z,102052.09
2023-05-02T10:19:10.390Z,102036.03
2023-05-02T10:21:15.457Z,102037.59
2023-05-02T10:23:20.002Z,102041.81
2023-05-02T10:25:23.674Z,102044.63
2023-05-02T10:27:27.163Z,102050.41
2023-05-02T10:29:31.059Z,102042.63
2023-05-02T10:31:37.727Z,102038.53
2023-05-02T10:33:41.955Z,102051.16
2023-05-02T10:35:47.719Z,102056.00
2023-05-02T10:37:52.158Z,102059.94
2023-05-02T10:39:55.866Z,102055.41
2023-05-02T10:42:02.245Z,102062.50
2023-05-02T10:44:07.967Z,102065.16
2023-05-02T10:46:33.766Z,102062.03
2023-05-02T10:48:38.760Z,102064.72
2023-05-02T10:50:47.765Z,102063.19
2023-05-02T10:52:51.681Z,102063.53
2023-05-02T10:55:15.169Z,102072.88
2023-05-02T10:57:18.580Z,102088.88
2023-05-02T10:59:29.507Z,102077.59
2023-05-02T11:01:40.395Z,102081.22
2023-05-02T11:03:57.489Z,102087.31
2023-05-02T11:06:09.892Z,102089.72
2023-05-02T11:08:32.211Z,102084.97
2023-05-02T11:10:35.673Z,102098.63
2023-05-02T11:12:49.429Z,102093.25
2023-05-02T11:14:52.837Z,102082.75
2023-05-02T11:17:09.896Z,102092.31
2023-05-02T11:19:13.313Z,102099.06
2023-05-02T11:21:32.860Z,102097.59
2023-05-02T11:23:37.365Z,102094.41
2023-05-02T11:25:43.567Z,102095.56
2023-05-02T11:27:49.366Z,102097.25
2023-05-02T11:29:56.261Z,102094.69
2023-05-02T11:31:59.822Z,102100.81
2023-05-02T11:34:04.664Z,102099.94
2023-05-02T11:36:08.455Z,102104.13
2023-05-02T11:38:14.812Z,102107.25
2023-05-02T11:40:18.557Z,102105.69
2023-05-02T11:42:31.734Z,102112.63
2023-05-02T11:44:35.953Z,102122.16
2023-05-02T11:46:40.218Z,102119.31
2023-05-02T11:48:43.862Z,102115.91
2023-05-02T11:50:50.332Z,102120.53
2023-05-02T11:52:54.327Z,102123.63
2023-05-02T11:54:59.438Z,102120.41
2023-05-02T11:57:03.130Z,102120.66
2023-05-02T11:59:06.570Z,102124.34
2023-05-02T12:01:14.598Z,102133.44
2023-05-02T12:03:25.473Z,102126.88
2023-05-02T12:05:30.708Z,102129.03
2023-05-02T12:07:38.209Z,102129.31
2023-05-02T12:09:52.321Z,102145.00
2023-05-02T12:11:57.521Z,102144.78
2023-05-02T12:14:01.144Z,102142.31
2023-05-02T12:16:05.036Z,102137.69
2023-05-02T12:18:09.264Z,102139.63
2023-05-02T12:20:13.908Z,102135.22
2023-05-02T12:22:18.123Z,102146.75
2023-05-02T12:24:21.636Z,102151.47
2023-05-02T12:26:29.597Z,102155.66
2023-05-02T12:28:50.421Z,102145.72
2023-05-02T12:30:53.886Z,102146.97
2023-05-02T12:32:59.185Z,102163.88
2023-05-02T12:35:04.384Z,102164.78
2023-05-02T12:37:10.040Z,102164.72
2023-05-02T12:39:14.447Z,102173.22
2023-05-02T12:41:17.986Z,102175.53
2023-05-02T12:43:22.135Z,102168.47
2023-05-02T12:45:29.324Z,102173.31
2023-05-02T12:47:46.219Z,102172.41
2023-05-02T12:49:50.625Z,102166.75
2023-05-02T12:51:55.835Z,102175.78
2023-05-02T12:53:59.150Z,102174.22
2023-05-02T12:56:05.944Z,102169.25
2023-05-02T12:58:10.577Z,102166.91
2023-05-02T13:00:17.575Z,102174.25
2023-05-02T13:02:22.916Z,102177.91
2023-05-02T13:04:35.568Z,102184.88
2023-05-02T13:06:39.263Z,102176.78
2023-05-02T13:08:42.636Z,102191.47
2023-05-02T13:10:45.932Z,102192.94
2023-05-02T13:12:49.965Z,102193.56
2023-05-02T13:14:53.356Z,102191.81
2023-05-02T13:16:57.156Z,102193.22
2023-05-02T13:19:01.924Z,102192.47
2023-05-02T13:21:05.837Z,102195.94
2023-05-02T13:23:09.199Z,102200.75
2023-05-02T13:25:12.726Z,102202.53
2023-05-02T13:27:18.557Z,102200.03
2023-05-02T13:29:21.932Z,102197.94
2023-05-02T13:31:25.379Z,102201.84
2023-05-02T13:33:28.816Z,102199.16
2023-05-02T13:35:35.264Z,102209.50
2023-05-02T13:37:38.851Z,102216.53
2023-05-02T13:39:42.353Z,102212.50
2023-05-02T13:41:45.712Z,102217.34
2023-05-02T13:43:49.030Z,102226.56
2023-05-02T13:45:52.631Z,102217.63
2023-05-02T13:47:56.112Z,102224.44
2023-05-02T13:49:59.707Z,102223.31
2023-05-02T13:52:04.818Z,102226.53
2023-05-02T13:54:08.187Z,102236.56
2023-05-02T13:56:11.508Z,102236.97
2023-05-02T13:58:14.887Z,102231.22
2023-05-02T14:00:18.781Z,102235.06
2023-05-02T14:02:22.564Z,102229.19
2023-05-02T14:04:26.005Z,102232.84
2023-05-02T14:06:29.415Z,102232.91
2023-05-02T14:08:34.269Z,102232.06
2023-05-02T14:10:37.965Z,102225.06
2023-05-02T14:12:41.429Z,102235.41
2023-05-02T14:14:44.734Z,102239.63
2023-05-02T14:16:50.266Z,102235.97
2023-05-02T14:18:54.056Z,102235.91
2023-05-02T14:21:00.006Z,102240.31
2023-05-02T14:23:05.252Z,102246.41
2023-05-02T14:25:11.410Z,102242.75
2023-05-02T14:27:18.359Z,102246.94
2023-05-02T14:29:21.847Z,102241.56
2023-05-02T14:31:25.315Z,102253.75
2023-05-02T14:33:28.772Z,102254.66
2023-05-02T14:35:32.103Z,102260.03
2023-05-02T14:37:35.649Z,102254.94
2023-05-02T14:39:40.422Z,102253.28
2023-05-02T14:41:45.336Z,102272.50
2023-05-02T14:43:48.760Z,102262.84
2023-05-02T14:45:52.150Z,102267.19
2023-05-02T14:47:55.996Z,102265.41
2023-05-02T14:49:59.743Z,102271.44
2023-05-02T14:52:03.458Z,102272.22
2023-05-02T14:54:07.202Z,102265.22
2023-05-02T14:56:14.837Z,102270.41
2023-05-02T14:58:20.791Z,102270.41
2023-05-02T15:00:24.741Z,102273.94
2023-05-02T15:02:28.307Z,102278.34
2023-05-02T15:04:31.998Z,102273.94
2023-05-02T15:06:36.786Z,102287.72
2023-05-02T15:08:40.774Z,102273.44
2023-05-02T15:10:44.255Z,102271.97
2023-05-02T15:12:50.868Z,102275.91
2023-05-02T15:14:55.648Z,102265.28
2023-05-02T15:16:59.054Z,102274.19
2023-05-02T15:19:02.605Z,102272.69
2023-05-02T15:21:06.709Z,102279.75
2023-05-02T15:23:10.148Z,102286.78
2023-05-02T15:25:13.540Z,102275.59
2023-05-02T15:27:16.916Z,102271.81
2023-05-02T15:29:25.375Z,102287.16
2023-05-02T15:31:30.245Z,102284.72
2023-05-02T15:33:33.886Z,102288.41
2023-05-02T15:35:37.252Z,102295.78
2023-05-02T15:37:40.582Z,102302.81
2023-05-02T15:39:43.938Z,102297.63
2023-05-02T15:41:48.010Z,102301.03
2023-05-02T15:43:51.535Z,102299.56
2023-05-02T15:45:56.052Z,102300.34
2023-05-02T15:48:01.141Z,102305.88
2023-05-02T15:50:05.198Z,102296.94
2023-05-02T15:52:09.139Z,102310.34
2023-05-02T15:54:12.460Z,102302.91
2023-05-02T15:56:15.994Z,102308.59
2023-05-02T15:58:20.391Z,102311.50
2023-05-02T16:00:23.867Z,102314.50
2023-05-02T16:02:27.222Z,102318.38
2023-05-02T16:04:32.248Z,102311.25
2023-05-02T16:06:36.432Z,102306.88
2023-05-02T16:08:40.162Z,102307.19
2023-05-02T16:10:43.579Z,102319.63
2023-05-02T16:12:46.960Z,102313.88
2023-05-02T16:14:50.355Z,102321.41
2023-05-02T16:16:53.926Z,102326.38
2023-05-02T16:18:57.485Z,102322.47
2023-05-02T16:21:02.224Z,102323.41
2023-05-02T16:23:05.628Z,102330.56
2023-05-02T16:25:09.291Z,102326.59
2023-05-02T16:27:12.666Z,102334.56
2023-05-02T16:29:16.173Z,102321.19
2023-05-02T16:31:19.528Z,102323.31
2023-05-02T16:33:23.113Z,102338.19
2023-05-02T16:35:26.782Z,102325.88
2023-05-02T16:37:31.544Z,102323.59
2023-05-02T16:39:35.301Z,102326.69
2023-05-02T16:41:38.738Z,102335.81
2023-05-02T16:43:42.338Z,102336.75
2023-05-02T16:45:47.086Z,102339.19
2023-05-02T16:47:50.652Z,102332.84
2023-05-02T16:49:55.140Z,102338.75
2023-05-02T16:51:58.447Z,102344.03
2023-05-02T16:54:03.367Z,102348.41
2023-05-02T16:56:07.587Z,102364.84
2023-05-02T16:58:11.118Z,102354.00
2023-05-02T17:00:17.135Z,102352.84
2023-05-02T17:02:22.608Z,102353.16
2023-05-02T17:04:27.768Z,102365.84
2023-05-02T17:06:32.132Z,102354.19
2023-05-02T17:08:37.360Z,102360.03
2023-05-02T17:10:43.556Z,102355.47
2023-05-02T17:12:47.018Z,102351.91
2023-05-02T17:14:51.733Z,102351.78
2023-05-02T17:16:55.315Z,102354.94
2023-05-02T17:18:58.762Z,102365.13
2023-05-02T17:21:03.919Z,102359.53
2023-05-02T17:23:09.121Z,102355.50
2023-05-02T17:25:12.470Z,102356.63
2023-05-02T17:27:20.440Z,102363.78
2023-05-02T17:29:24.056Z,102373.63
2023-05-02T17:31:27.492Z,102367.69
2023-05-02T17:33:30.844Z,102363.47
2023-05-02T17:35:34.303Z,102368.03
2023-05-02T17:37:38.893Z,102361.19
2023-05-02T17:39:42.334Z,102362.19
2023-05-02T17:41:45.975Z,102370.25
2023-05-02T17:43:50.730Z,102371.31
2023-05-02T17:45:54.107Z,102368.06
2023-05-02T17:47:57.847Z,102374.31
2023-05-02T17:50:04.756Z,102371.84
2023-05-02T17:52:08.444Z,102379.78
2023-05-02T17:54:12.004Z,102383.41
2023-05-02T17:56:18.679Z,102399.16
2023-05-02T17:58:22.191Z,102397.44
2023-05-02T18:00:27.320Z,102386.16
2023-05-02T18:02:30.718Z,102393.22
2023-05-02T18:04:34.458Z,102393.31
2023-05-02T18:06:37.985Z,102402.16
2023-05-02T18:08:41.438Z,102391.06
2023-05-02T18:10:44.804Z,102397.38
2023-05-02T18:12:48.184Z,102399.38
2023-05-02T18:14:52.651Z,102394.34
2023-05-02T18:16:57.405Z,102393.78
2023-05-02T18:19:00.943Z,102401.78
2023-05-02T18:21:04.366Z,102399.31
2023-05-02T18:23:07.987Z,102400.28
2023-05-02T18:25:11.809Z,102408.97
2023-05-02T18:27:15.198Z,102404.69
2023-05-02T18:29:18.674Z,102405.59
2023-05-02T18:31:22.421Z,102411.72
2023-05-02T18:33:27.203Z,102412.63
2023-05-02T18:35:31.045Z,102404.78
2023-05-02T18:37:35.599Z,102415.22
2023-05-02T18:39:38.949Z,102412.63
2023-05-02T18:41:42.292Z,102412.72
2023-05-02T18:43:45.846Z,102409.38
2023-05-02T18:45:49.287Z,102404.34
2023-05-02T18:47:52.968Z,102411.47
2023-05-02T18:49:59.600Z,102416.88
2023-05-02T18:52:03.510Z,102417.84
2023-05-02T18:54:07.147Z,102414.53
2023-05-02T18:56:14.663Z,102416.34
2023-05-02T18:58:18.002Z,102412.88
2023-05-02T19:00:21.587Z,102420.75
2023-05-02T19:02:25.061Z,102424.28
2023-05-02T19:04:31.855Z,102431.22
2023-05-02T19:06:36.732Z,102426.88
2023-05-02T19:08:41.044Z,102432.09
2023-05-02T19:10:44.382Z,102437.34
2023-05-02T19:12:47.870Z,102426.06
2023-05-02T19:14:51.612Z,102438.22
2023-05-02T19:16:54.919Z,102438.31
2023-05-02T19:18:58.412Z,102443.53
2023-05-02T19:21:11.050Z,102440.13
2023-05-02T19:23:20.253Z,102444.47
2023-05-02T19:25:24.118Z,102455.88
2023-05-02T19:27:27.644Z,102448.94
2023-05-02T19:29:31.066Z,102448.06
2023-05-02T19:31:34.493Z,102465.59
2023-05-02T19:33:38.063Z,102466.56
2023-05-02T19:35:41.496Z,102473.63
2023-05-02T19:37:45.163Z,102470.31
2023-05-02T19:39:50.059Z,102473.94
2023-05-02T19:41:53.714Z,102471.50
2023-05-02T19:43:58.912Z,102484.66
2023-05-02T19:46:02.397Z,102488.31
2023-05-02T19:48:06.388Z,102483.25
2023-05-02T19:50:10.976Z,102485.97
2023-05-02T19:52:14.293Z,102483.56
2023-05-02T19:54:17.744Z,102488.06
2023-05-02T19:56:25.444Z,102476.97
2023-05-02T19:58:29.615Z,102484.03
2023-05-02T20:00:32.984Z,102486.78
2023-05-02T20:02:36.437Z,102489.56
2023-05-02T20:04:39.896Z,102493.19
2023-05-02T20:06:43.502Z,102489.88
2023-05-02T20:08:46.996Z,102501.28
2023-05-02T20:10:50.400Z,102497.06
2023-05-02T20:12:55.206Z,102500.63
2023-05-02T20:14:58.707Z,102500.78
2023-05-02T20:17:02.338Z,102500.88
2023-05-02T20:19:05.675Z,102499.25
2023-05-02T20:21:09.186Z,102498.47
2023-05-02T20:23:12.584Z,102499.44
2023-05-02T20:25:16.039Z,102502.97
2023-05-02T20:27:19.404Z,102500.47
2023-05-02T20:29:24.163Z,102497.06
2023-05-02T20:31:27.682Z,102503.22
2023-05-02T20:33:43.750Z,102499.78
2023-05-02T20:35:55.078Z,102504.16
2023-05-02T20:37:58.476Z,102505.13
2023-05-02T20:40:02.445Z,102502.56
2023-05-02T20:42:06.697Z,102499.16
2023-05-02T20:44:10.008Z,102503.63
2023-05-02T20:46:16.955Z,102507.16
2023-05-02T20:48:20.288Z,102505.50
2023-05-02T20:50:23.924Z,102503.84
2023-05-02T20:52:27.301Z,102512.63
2023-05-02T20:54:31.012Z,102510.94
2023-05-02T20:56:34.339Z,102514.50
2023-05-02T20:58:37.834Z,102512.00
2023-05-02T21:00:42.056Z,102514.66
2023-05-02T21:02:46.902Z,102513.84
2023-05-02T21:04:50.283Z,102516.50
2023-05-02T21:06:56.748Z,102523.47
2023-05-02T21:09:01.978Z,102525.28
2023-05-02T21:11:13.621Z,102523.59
2023-05-02T21:13:16.738Z,102521.13
2023-05-02T21:15:20.047Z,102514.28
2023-05-02T21:17:26.314Z,102519.59
2023-05-02T21:19:33.085Z,102517.97
2023-05-02T21:21:36.384Z,102521.50
2023-05-02T21:23:39.832Z,102522.50
2023-05-02T21:25:43.153Z,102522.59
2023-05-02T21:27:46.558Z,102510.56
2023-05-02T21:29:49.948Z,102515.84
2023-05-02T21:31:54.800Z,102517.66
2023-05-02T21:33:58.347Z,102522.09
2023-05-02T21:36:03.066Z,102516.97
2023-05-02T21:38:06.321Z,102524.00
2023-05-02T21:40:10.726Z,102520.59
2023-05-02T21:42:14.071Z,102520.66
2023-05-02T21:44:17.402Z,102523.34
2023-05-02T21:46:20.925Z,102526.88
2023-05-02T21:48:24.553Z,102522.59
2023-05-02T21:50:29.417Z,102526.13
2023-05-02T21:52:34.153Z,102527.91
2023-05-02T21:54:37.639Z,102536.59
2023-05-02T21:56:40.919Z,102534.03
2023-05-02T21:58:45.300Z,102526.31
2023-05-02T22:00:48.829Z,102527.22
2023-05-02T22:02:52.219Z,102529.00
2023-05-02T22:04:57.888Z,102529.91
2023-05-02T22:07:01.394Z,102536.00
2023-05-02T22:09:08.377Z,102536.03
2023-05-02T22:11:11.730Z,102542.09
2023-05-02T22:13:16.774Z,102539.50
2023-05-02T22:15:20.142Z,102536.06
2023-05-02T22:17:23.487Z,102530.03
2023-05-02T22:19:26.917Z,102533.50
2023-05-02T22:21:30.542Z,102533.53
2023-05-02T22:23:34.271Z,102536.13
2023-05-02T22:25:41.644Z,102534.44
2023-05-02T22:27:45.085Z,102537.94
2023-05-02T22:29:48.474Z,102541.41
2023-05-02T22:31:52.316Z,102537.97
2023-05-02T22:33:55.760Z,102543.16
2023-05-02T22:35:59.214Z,102550.09
2023-05-02T22:38:02.822Z,102546.66
2023-05-02T22:40:08.401Z,102546.69
2023-05-02T22:42:13.162Z,102548.44
2023-05-02T22:44:16.555Z,102548.47
2023-05-02T22:46:19.986Z,102553.72
2023-05-02T22:48:23.329Z,102549.41
2023-05-02T22:50:27.493Z,102551.16
2023-05-02T22:52:30.881Z,102560.69
2023-05-02T22:54:34.213Z,102554.69
2023-05-02T22:56:37.723Z,102559.88
2023-05-02T22:58:42.611Z,102555.59
2023-05-02T23:00:46.288Z,102553.00
2023-05-02T23:02:49.873Z,102553.88
2023-05-02T23:04:53.259Z,102559.94
2023-05-02T23:06:56.620Z,102555.63
2023-05-02T23:08:59.955Z,102569.47
2023-05-02T23:11:03.329Z,102566.03
2023-05-02T23:13:06.779Z,102560.00
2023-05-02T23:15:12.434Z,102563.47
2023-05-02T23:17:15.853Z,102560.91
2023-05-02T23:19:19.214Z,102567.00
2023-05-02T23:21:22.569Z,102565.28
2023-05-02T23:23:26.493Z,102566.22
2023-05-02T23:25:30.941Z,102563.63
2023-05-02T23:27:34.282Z,102568.84
2023-05-02T23:29:37.689Z,102566.28
2023-05-02T23:31:42.644Z,102570.63
2023-05-02T23:33:52.016Z,102569.78
2023-05-02T23:35:55.428Z,102568.09
2023-05-02T23:38:00.964Z,102569.84
2023-05-02T23:40:04.906Z,102570.72
2023-05-02T23:42:09.547Z,102573.34
2023-05-02T23:44:12.948Z,102580.25
2023-05-02T23:46:16.404Z,102580.25
2023-05-02T23:48:21.300Z,102578.56